createdAt,value
2023-01-22T00:00:02.546Z,84.51
2023-01-22T00:03:15.399Z,84.63
2023-01-22T00:06:18.267Z,84.85
2023-01-22T00:09:22.515Z,85.18
2023-01-22T00:12:26.587Z,84.69
2023-01-22T00:15:29.461Z,84.94
2023-01-22T00:18:32.978Z,84.40
2023-01-22T00:21:35.892Z,85.01
2023-01-22T00:24:41.783Z,84.63
2023-01-22T00:27:44.622Z,84.63
2023-01-22T00:30:47.525Z,84.26
2023-01-22T00:33:50.387Z,84.33
2023-01-22T00:36:55.191Z,84.17
2023-01-22T00:40:00.126Z,84.08
2023-01-22T00:43:03.160Z,83.95
2023-01-22T00:46:07.117Z,83.83
2023-01-22T00:49:10.010Z,83.77
2023-01-22T00:52:13.091Z,83.93
2023-01-22T00:55:16.060Z,83.95
2023-01-22T00:58:19.853Z,83.49
2023-01-22T01:01:23.213Z,83.82
2023-01-22T01:04:26.839Z,84.00
2023-01-22T01:07:34.255Z,84.51
2023-01-22T01:10:37.376Z,84.77
2023-01-22T01:13:43.178Z,85.11
2023-01-22T01:16:50.943Z,85.11
2023-01-22T01:19:53.959Z,85.53
2023-01-22T01:22:56.857Z,86.16
2023-01-22T01:25:59.938Z,86.17
2023-01-22T01:29:04.853Z,86.54
2023-01-22T01:32:07.833Z,86.88
2023-01-22T01:35:13.067Z,86.86
2023-01-22T01:38:15.942Z,87.09
2023-01-22T01:41:22.569Z,86.68
2023-01-22T01:44:27.418Z,86.87
2023-01-22T01:47:34.694Z,86.87
2023-01-22T01:50:42.315Z,86.60
2023-01-22T01:53:49.038Z,86.99
2023-01-22T01:56:56.136Z,86.89
2023-01-22T02:00:00.734Z,86.79
2023-01-22T02:03:04.130Z,86.71
2023-01-22T02:06:11.747Z,86.71
2023-01-22T02:09:15.223Z,86.80
2023-01-22T02:12:18.615Z,86.60
2023-01-22T02:15:24.046Z,86.57
2023-01-22T02:18:27.833Z,86.68
2023-01-22T02:21:44.261Z,86.49
2023-01-22T02:24:47.478Z,86.90
2023-01-22T02:27:50.483Z,86.87
2023-01-22T02:30:55.738Z,86.47
2023-01-22T02:33:58.780Z,86.27
2023-01-22T02:37:04.087Z,86.72
2023-01-22T02:40:08.702Z,87.41
2023-01-22T02:43:11.718Z,87.00
2023-01-22T02:46:14.827Z,86.61
2023-01-22T02:49:17.671Z,87.04
2023-01-22T02:52:20.759Z,87.10
2023-01-22T02:55:23.910Z,86.89
2023-01-22T02:58:31.129Z,86.50
2023-01-22T03:01:38.244Z,86.52
2023-01-22T03:04:41.119Z,86.42
2023-01-22T03:07:50.268Z,86.38
2023-01-22T03:10:58.608Z,86.44
2023-01-22T03:14:21.802Z,86.01
2023-01-22T03:17:43.392Z,86.54
2023-01-22T03:21:07.153Z,86.37
2023-01-22T03:24:10.611Z,86.75
2023-01-22T03:27:13.888Z,87.56
2023-01-22T03:30:17.295Z,87.74
2023-01-22T03:33:20.372Z,88.08
2023-01-22T03:36:24.981Z,87.60
2023-01-22T03:39:32.957Z,87.46
2023-01-22T03:42:35.811Z,87.97
2023-01-22T03:45:38.861Z,87.37
2023-01-22T03:48:45.678Z,87.96
2023-01-22T03:51:49.090Z,87.77
2023-01-22T03:54:52.266Z,88.42
2023-01-22T03:57:55.618Z,88.33
2023-01-22T04:01:02.381Z,88.35
2023-01-22T04:04:06.156Z,88.75
2023-01-22T04:07:09.050Z,88.59
2023-01-22T04:10:11.838Z,88.98
2023-01-22T04:13:14.930Z,89.54
2023-01-22T04:16:23.049Z,88.71
2023-01-22T04:19:42.631Z,88.73
2023-01-22T04:23:04.240Z,88.80
2023-01-22T04:26:07.133Z,89.16
2023-01-22T04:29:10.157Z,89.03
2023-01-22T04:32:13.432Z,88.67
2023-01-22T04:35:45.451Z,88.42
2023-01-22T04:38:48.332Z,88.15
2023-01-22T04:41:51.789Z,88.03
2023-01-22T04:44:55.602Z,88.12
2023-01-22T04:47:59.157Z,87.84
2023-01-22T04:51:02.871Z,88.00
2023-01-22T04:54:07.644Z,87.70
2023-01-22T04:57:11.151Z,87.70
2023-01-22T05:00:15.404Z,86.81
2023-01-22T05:03:18.378Z,86.97
2023-01-22T05:06:21.394Z,86.75
2023-01-22T05:09:25.831Z,87.16
2023-01-22T05:12:31.591Z,87.40
2023-01-22T05:15:36.547Z,87.36
2023-01-22T05:18:44.681Z,87.62
2023-01-22T05:21:47.839Z,87.13
2023-01-22T05:24:56.504Z,87.08
2023-01-22T05:27:59.496Z,87.00
2023-01-22T05:31:31.644Z,86.91
2023-01-22T05:34:39.799Z,87.19
2023-01-22T05:37:44.584Z,87.36
2023-01-22T05:40:49.319Z,87.05
2023-01-22T05:43:52.188Z,87.17
2023-01-22T05:46:59.751Z,87.25
2023-01-22T05:50:10.019Z,87.23
2023-01-22T05:53:12.957Z,86.62
2023-01-22T05:56:16.203Z,86.61
2023-01-22T05:59:19.584Z,86.88
2023-01-22T06:02:29.861Z,86.73
2023-01-22T06:05:33.429Z,86.69
2023-01-22T06:08:41.846Z,86.54
2023-01-22T06:11:45.222Z,86.34
2023-01-22T06:14:49.421Z,85.90
2023-01-22T06:17:52.543Z,85.82
2023-01-22T06:21:00.533Z,85.95
2023-01-22T06:24:03.643Z,85.96
2023-01-22T06:27:07.909Z,86.03
2023-01-22T06:30:17.388Z,86.29
2023-01-22T06:33:21.341Z,85.70
2023-01-22T06:36:24.461Z,85.79
2023-01-22T06:39:27.601Z,86.17
2023-01-22T06:42:38.716Z,86.27
2023-01-22T06:45:42.499Z,86.26
2023-01-22T06:48:48.070Z,86.73
2023-01-22T06:51:52.531Z,87.20
2023-01-22T06:54:55.414Z,87.03
2023-01-22T06:58:00.980Z,87.31
2023-01-22T07:01:05.957Z,87.21
2023-01-22T07:04:09.008Z,87.13
2023-01-22T07:07:12.656Z,87.44
2023-01-22T07:10:16.827Z,87.23
2023-01-22T07:13:20.117Z,87.18
2023-01-22T07:16:23.088Z,86.94
2023-01-22T07:19:29.718Z,87.06
2023-01-22T07:22:32.719Z,87.09
2023-01-22T07:25:35.633Z,87.65
2023-01-22T07:28:38.383Z,87.47
2023-01-22T07:31:41.284Z,87.44
2023-01-22T07:34:44.216Z,87.50
2023-01-22T07:37:55.143Z,87.20
2023-01-22T07:41:13.927Z,87.51
2023-01-22T07:44:23.350Z,87.19
2023-01-22T07:47:26.284Z,86.81
2023-01-22T07:50:32.269Z,86.33
2023-01-22T07:53:35.330Z,86.30
2023-01-22T07:56:38.192Z,86.21
2023-01-22T07:59:41.503Z,86.33
2023-01-22T08:02:50.295Z,86.01
2023-01-22T08:05:53.035Z,86.41
2023-01-22T08:08:56.127Z,86.49
2023-01-22T08:11:59.178Z,85.71
2023-01-22T08:15:02.623Z,85.93
2023-01-22T08:18:07.655Z,85.88
2023-01-22T08:21:10.592Z,86.24
2023-01-22T08:24:14.398Z,86.30
2023-01-22T08:27:17.594Z,86.32
2023-01-22T08:30:20.926Z,86.08
2023-01-22T08:33:23.856Z,85.74
2023-01-22T08:36:26.898Z,86.27
2023-01-22T08:39:32.722Z,86.08
2023-01-22T08:42:35.699Z,86.34
2023-01-22T08:45:38.607Z,86.62
2023-01-22T08:48:44.145Z,85.99
2023-01-22T08:51:47.103Z,85.82
2023-01-22T08:54:49.969Z,86.21
2023-01-22T08:57:54.312Z,86.13
2023-01-22T09:00:57.200Z,86.70
2023-01-22T09:04:00.310Z,87.19
2023-01-22T09:07:03.172Z,86.24
2023-01-22T09:10:12.390Z,86.39
2023-01-22T09:13:17.751Z,86.15
2023-01-22T09:16:20.515Z,86.27
2023-01-22T09:19:23.430Z,86.43
2023-01-22T09:22:26.530Z,86.21
2023-01-22T09:25:29.715Z,85.89
2023-01-22T09:28:35.078Z,86.10
2023-01-22T09:31:38.775Z,85.63
2023-01-22T09:34:41.738Z,85.53
2023-01-22T09:37:44.611Z,85.66
2023-01-22T09:40:58.736Z,85.73
2023-01-22T09:44:20.355Z,85.49
2023-01-22T09:47:52.087Z,85.00
2023-01-22T09:50:55.184Z,85.34
2023-01-22T09:54:01.199Z,84.95
2023-01-22T09:57:07.574Z,84.55
2023-01-22T10:00:50.162Z,84.64
2023-01-22T10:03:59.233Z,83.93
2023-01-22T10:07:06.571Z,85.76
2023-01-22T10:10:21.371Z,84.80
2023-01-22T10:13:34.699Z,84.56
2023-01-22T10:16:37.666Z,84.21
2023-01-22T10:19:44.981Z,84.84
2023-01-22T10:22:49.045Z,83.88
2023-01-22T10:26:59.161Z,84.07
2023-01-22T10:30:09.000Z,83.71
2023-01-22T10:33:22.843Z,84.01
2023-01-22T10:36:27.341Z,83.47
2023-01-22T10:39:44.461Z,83.51
2023-01-22T10:42:59.562Z,83.70
2023-01-22T10:46:16.498Z,84.16
2023-01-22T10:49:28.227Z,85.62
2023-01-22T10:52:41.930Z,84.13
2023-01-22T10:55:55.307Z,84.61
2023-01-22T10:59:00.289Z,84.12
2023-01-22T11:02:16.675Z,83.65
2023-01-22T11:05:27.449Z,82.76
2023-01-22T11:08:41.386Z,83.29
2023-01-22T11:12:08.663Z,83.02
2023-01-22T11:15:48.598Z,82.61
2023-01-22T11:19:01.518Z,83.13
2023-01-22T11:22:14.999Z,82.98
2023-01-22T11:25:17.932Z,81.95
2023-01-22T11:28:50.213Z,81.60
2023-01-22T11:32:11.687Z,82.55
2023-01-22T11:35:40.618Z,82.44
2023-01-22T11:39:19.329Z,82.27
2023-01-22T11:42:40.494Z,82.33
2023-01-22T11:45:50.646Z,81.95
2023-01-22T11:49:08.313Z,83.25
2023-01-22T11:52:21.314Z,81.26
2023-01-22T11:55:30.171Z,81.09
2023-01-22T11:58:47.565Z,82.20
2023-01-22T12:02:12.388Z,80.63
2023-01-22T12:06:12.807Z,81.61
2023-01-22T12:09:30.570Z,80.30
2023-01-22T12:13:01.389Z,80.21
2023-01-22T12:16:26.260Z,80.01
2023-01-22T12:19:56.881Z,80.01
2023-01-22T12:23:06.427Z,80.04
2023-01-22T12:26:32.850Z,80.78
2023-01-22T12:29:47.243Z,80.16
2023-01-22T12:32:56.045Z,80.95
2023-01-22T12:36:05.584Z,81.32
2023-01-22T12:39:31.083Z,81.01
2023-01-22T12:43:04.265Z,80.18
2023-01-22T12:46:21.835Z,80.84
2023-01-22T12:49:26.626Z,80.60
2023-01-22T12:52:34.126Z,80.68
2023-01-22T12:55:41.628Z,80.24
2023-01-22T12:58:57.147Z,80.08
2023-01-22T13:02:22.003Z,80.54
2023-01-22T13:05:31.171Z,80.64
2023-01-22T13:08:41.033Z,80.52
2023-01-22T13:11:43.955Z,80.74
2023-01-22T13:14:49.131Z,81.63
2023-01-22T13:18:24.054Z,80.96
2023-01-22T13:21:32.822Z,80.10
2023-01-22T13:24:35.729Z,80.43
2023-01-22T13:27:38.615Z,81.02
2023-01-22T13:30:42.079Z,81.12
2023-01-22T13:34:09.034Z,80.52
2023-01-22T13:37:26.345Z,81.19
2023-01-22T13:40:36.993Z,80.72
2023-01-22T13:43:46.091Z,80.72
2023-01-22T13:46:50.626Z,80.55
2023-01-22T13:49:54.191Z,81.23
2023-01-22T13:52:58.517Z,81.13
2023-01-22T13:56:01.863Z,81.21
2023-01-22T13:59:19.629Z,81.49
2023-01-22T14:02:29.835Z,81.34
2023-01-22T14:05:35.219Z,81.65
2023-01-22T14:08:45.590Z,81.61
2023-01-22T14:11:50.165Z,81.28
2023-01-22T14:14:54.335Z,81.51
2023-01-22T14:18:09.067Z,81.70
2023-01-22T14:21:12.110Z,82.52
2023-01-22T14:24:14.983Z,82.38
2023-01-22T14:27:21.803Z,82.25
2023-01-22T14:30:24.708Z,82.62
2023-01-22T14:33:30.527Z,82.06
2023-01-22T14:36:33.589Z,82.22
2023-01-22T14:39:36.802Z,82.41
2023-01-22T14:42:40.265Z,81.40
2023-01-22T14:45:45.525Z,82.11
2023-01-22T14:48:52.899Z,82.41
2023-01-22T14:51:56.404Z,81.79
2023-01-22T14:54:59.518Z,82.10
2023-01-22T14:58:02.635Z,82.02
2023-01-22T15:01:17.501Z,82.53
2023-01-22T15:04:20.374Z,82.76
2023-01-22T15:07:23.284Z,83.33
2023-01-22T15:10:26.125Z,83.11
2023-01-22T15:13:29.211Z,82.96
2023-01-22T15:16:32.874Z,82.96
2023-01-22T15:19:41.138Z,82.80
2023-01-22T15:22:45.293Z,82.80
2023-01-22T15:26:02.063Z,82.54
2023-01-22T15:29:08.862Z,82.06
2023-01-22T15:32:11.802Z,83.11
2023-01-22T15:35:14.876Z,83.33
2023-01-22T15:38:18.138Z,83.19
2023-01-22T15:41:23.655Z,83.52
2023-01-22T15:44:26.668Z,83.32
2023-01-22T15:47:29.722Z,83.66
2023-01-22T15:50:33.660Z,83.65
2023-01-22T15:53:36.864Z,84.17
2023-01-22T15:56:40.071Z,84.26
2023-01-22T15:59:44.410Z,84.75
2023-01-22T16:02:47.294Z,84.92
2023-01-22T16:05:50.348Z,84.35
2023-01-22T16:08:55.333Z,84.67
2023-01-22T16:11:58.776Z,84.90
2023-01-22T16:15:01.596Z,85.00
2023-01-22T16:18:04.922Z,84.91
2023-01-22T16:21:09.311Z,85.13
2023-01-22T16:24:13.029Z,84.18
2023-01-22T16:27:16.026Z,84.32
2023-01-22T16:30:21.653Z,85.08
2023-01-22T16:33:28.864Z,84.97
2023-01-22T16:36:33.368Z,84.27
2023-01-22T16:39:36.950Z,84.19
2023-01-22T16:42:40.459Z,84.35
2023-01-22T16:45:43.748Z,84.01
2023-01-22T16:48:46.696Z,83.65
2023-01-22T16:51:53.299Z,83.96
2023-01-22T16:54:56.389Z,84.01
2023-01-22T16:58:01.034Z,83.91
2023-01-22T17:01:07.859Z,83.95
2023-01-22T17:04:10.873Z,84.02
2023-01-22T17:07:31.591Z,83.60
2023-01-22T17:10:37.282Z,83.66
2023-01-22T17:13:40.536Z,83.82
2023-01-22T17:16:43.437Z,84.22
2023-01-22T17:19:46.754Z,84.40
2023-01-22T17:22:49.859Z,84.62
2023-01-22T17:25:53.654Z,84.10
2023-01-22T17:28:57.004Z,84.13
2023-01-22T17:32:00.416Z,83.69
2023-01-22T17:35:04.898Z,83.70
2023-01-22T17:38:08.854Z,83.68
2023-01-22T17:41:18.402Z,83.82
2023-01-22T17:44:21.446Z,84.01
2023-01-22T17:47:24.697Z,84.11
2023-01-22T17:50:28.519Z,84.00
2023-01-22T17:53:31.741Z,83.93
2023-01-22T17:56:37.964Z,84.04
2023-01-22T17:59:40.973Z,84.27
2023-01-22T18:02:44.227Z,84.03
2023-01-22T18:05:47.672Z,84.27
2023-01-22T18:08:50.868Z,84.33
2023-01-22T18:11:57.950Z,84.33
2023-01-22T18:15:00.977Z,84.21
2023-01-22T18:18:04.227Z,83.68
2023-01-22T18:21:09.926Z,83.67
2023-01-22T18:24:13.557Z,84.01
2023-01-22T18:27:16.643Z,83.81
2023-01-22T18:30:19.532Z,83.78
2023-01-22T18:33:22.646Z,83.76
2023-01-22T18:36:28.087Z,83.78
2023-01-22T18:39:31.553Z,83.28
2023-01-22T18:42:35.118Z,84.14
2023-01-22T18:45:42.966Z,84.31
2023-01-22T18:48:46.107Z,83.93
2023-01-22T18:51:49.586Z,83.41
2023-01-22T18:54:52.652Z,83.30
2023-01-22T18:58:36.050Z,83.47
2023-01-22T19:01:41.182Z,83.94
2023-01-22T19:04:44.382Z,84.41
2023-01-22T19:07:47.532Z,84.35
2023-01-22T19:10:50.576Z,84.44
2023-01-22T19:13:56.087Z,84.48
2023-01-22T19:16:59.289Z,84.42
2023-01-22T19:20:03.699Z,84.55
2023-01-22T19:23:06.804Z,84.34
2023-01-22T19:26:18.079Z,84.27
2023-01-22T19:29:25.470Z,84.31
2023-01-22T19:32:30.407Z,84.31
2023-01-22T19:35:33.441Z,83.99
2023-01-22T19:38:36.531Z,84.16
2023-01-22T19:41:40.895Z,84.07
2023-01-22T19:44:45.466Z,83.98
2023-01-22T19:47:55.113Z,83.72
2023-01-22T19:51:05.231Z,83.35
2023-01-22T19:54:08.991Z,83.88
2023-01-22T19:57:12.164Z,83.48
2023-01-22T20:00:16.110Z,83.48
2023-01-22T20:03:19.211Z,83.29
2023-01-22T20:06:25.226Z,83.24
2023-01-22T20:09:30.073Z,82.59
2023-01-22T20:12:33.218Z,82.81
2023-01-22T20:15:41.335Z,83.14
2023-01-22T20:18:44.958Z,83.02
2023-01-22T20:21:49.066Z,83.18
2023-01-22T20:24:52.476Z,82.67
2023-01-22T20:28:01.214Z,82.72
2023-01-22T20:31:07.756Z,82.93
2023-01-22T20:34:12.221Z,83.01
2023-01-22T20:37:18.244Z,82.63
2023-01-22T20:40:23.622Z,82.65
2023-01-22T20:43:26.894Z,82.21
2023-01-22T20:46:29.998Z,82.89
2023-01-22T20:49:33.426Z,82.78
2023-01-22T20:52:36.585Z,82.70
2023-01-22T20:55:39.875Z,82.80
2023-01-22T20:58:43.143Z,82.62
2023-01-22T21:01:46.927Z,82.76
2023-01-22T21:04:52.318Z,82.23
2023-01-22T21:07:55.522Z,82.72
2023-01-22T21:11:02.193Z,82.66
2023-01-22T21:14:07.292Z,82.55
2023-01-22T21:17:12.265Z,82.92
2023-01-22T21:20:15.583Z,82.27
2023-01-22T21:23:18.923Z,82.64
2023-01-22T21:26:24.706Z,82.34
2023-01-22T21:29:27.994Z,82.15
2023-01-22T21:32:31.265Z,82.23
2023-01-22T21:35:36.643Z,82.54
2023-01-22T21:38:39.885Z,82.56
2023-01-22T21:41:43.959Z,82.40
2023-01-22T21:45:05.470Z,82.33
2023-01-22T21:48:08.558Z,82.43
2023-01-22T21:51:11.545Z,81.84
2023-01-22T21:54:17.142Z,82.18
2023-01-22T21:57:20.222Z,81.78
2023-01-22T22:00:23.249Z,82.18
2023-01-22T22:03:26.098Z,82.34
2023-01-22T22:06:30.451Z,82.54
2023-01-22T22:09:33.797Z,82.44
2023-01-22T22:12:36.539Z,82.49
2023-01-22T22:15:42.184Z,82.32
2023-01-22T22:18:45.146Z,83.04
2023-01-22T22:21:53.370Z,82.97
2023-01-22T22:24:56.270Z,82.89
2023-01-22T22:28:01.027Z,83.04
2023-01-22T22:31:11.975Z,82.94
2023-01-22T22:34:14.821Z,83.12
2023-01-22T22:37:17.600Z,83.52
2023-01-22T22:40:21.730Z,83.73
2023-01-22T22:43:25.774Z,83.44
2023-01-22T22:46:35.484Z,83.23
2023-01-22T22:49:38.283Z,83.14
2023-01-22T22:52:42.206Z,83.45
2023-01-22T22:55:48.108Z,83.06
2023-01-22T22:58:51.830Z,83.75
2023-01-22T23:01:54.637Z,83.64
2023-01-22T23:04:57.775Z,83.83
2023-01-22T23:08:02.536Z,83.79
2023-01-22T23:11:07.551Z,84.11
2023-01-22T23:14:13.816Z,84.23
2023-01-22T23:17:16.802Z,84.37
2023-01-22T23:20:23.546Z,84.53
2023-01-22T23:23:26.479Z,84.74
2023-01-22T23:26:30.434Z,84.85
2023-01-22T23:29:34.265Z,84.99
2023-01-22T23:32:37.262Z,85.01
2023-01-22T23:35:40.021Z,85.04
2023-01-22T23:38:43.313Z,84.91
2023-01-22T23:41:46.649Z,85.13
2023-01-22T23:44:52.509Z,85.05
2023-01-22T23:47:56.076Z,85.05
2023-01-22T23:51:00.714Z,85.01
2023-01-22T23:54:03.583Z,85.27
2023-01-22T23:57:09.063Z,85.57
